createdAt,value
2018-07-26T00:00:17.693Z,5.33
2018-07-26T00:02:46.676Z,5.67
2018-07-26T00:05:15.711Z,5.40
2018-07-26T00:07:44.811Z,5.47
2018-07-26T00:10:13.858Z,5.20
2018-07-26T00:12:42.809Z,5.30
2018-07-26T00:15:11.853Z,5.53
2018-07-26T00:17:40.889Z,5.43
2018-07-26T00:20:09.946Z,5.57
2018-07-26T00:22:38.905Z,5.47
2018-07-26T00:25:07.926Z,5.40
2018-07-26T00:27:36.929Z,6.20
2018-07-26T00:30:06.011Z,5.80
2018-07-26T00:32:34.993Z,5.77
2018-07-26T00:35:04.617Z,6.00
2018-07-26T00:37:33.577Z,5.90
2018-07-26T00:40:02.604Z,5.90
2018-07-26T00:42:31.743Z,5.57
2018-07-26T00:45:00.735Z,5.87
2018-07-26T00:47:29.829Z,6.30
2018-07-26T00:49:58.873Z,5.80
2018-07-26T00:52:27.879Z,6.13
2018-07-26T00:54:56.973Z,6.50
2018-07-26T00:57:25.972Z,5.97
2018-07-26T00:59:54.965Z,6.23
2018-07-26T01:02:24.101Z,6.30
2018-07-26T01:04:53.053Z,6.70
2018-07-26T01:07:22.061Z,6.30
2018-07-26T01:09:51.078Z,6.10
2018-07-26T01:12:20.044Z,7.10
2018-07-26T01:14:49.032Z,6.97
2018-07-26T01:17:18.365Z,7.03
2018-07-26T01:19:47.352Z,6.90
2018-07-26T01:22:16.376Z,7.23
2018-07-26T01:24:45.824Z,7.50
2018-07-26T01:27:14.805Z,8.13
2018-07-26T01:29:43.844Z,8.07
2018-07-26T01:32:12.904Z,7.97
2018-07-26T01:34:41.880Z,7.83
2018-07-26T01:37:10.928Z,7.87
2018-07-26T01:39:39.948Z,8.00
2018-07-26T01:42:08.944Z,7.07
2018-07-26T01:44:37.974Z,7.63
2018-07-26T01:47:07.110Z,8.13
2018-07-26T01:49:36.162Z,8.00
2018-07-26T01:52:05.154Z,8.17
2018-07-26T01:54:34.148Z,8.63
2018-07-26T01:57:03.143Z,8.47
2018-07-26T01:59:32.278Z,8.97
2018-07-26T02:02:01.294Z,8.60
2018-07-26T02:04:30.281Z,8.67
2018-07-26T02:06:59.256Z,8.23
2018-07-26T02:09:28.285Z,8.80
2018-07-26T02:11:57.246Z,8.70
2018-07-26T02:14:31.677Z,8.93
2018-07-26T02:17:00.651Z,9.37
2018-07-26T02:19:30.181Z,9.83
2018-07-26T02:21:59.228Z,10.70
2018-07-26T02:24:28.289Z,9.67
2018-07-26T02:26:57.312Z,9.83
2018-07-26T02:29:26.380Z,10.30
2018-07-26T02:31:55.424Z,11.33
2018-07-26T02:34:24.421Z,10.47
2018-07-26T02:36:53.562Z,10.37
2018-07-26T02:39:22.526Z,10.23
2018-07-26T02:41:51.632Z,9.60
2018-07-26T02:44:20.639Z,9.73
2018-07-26T02:46:50.372Z,9.83
2018-07-26T02:49:19.372Z,10.57
2018-07-26T02:51:48.447Z,9.70
2018-07-26T02:54:17.460Z,9.60
2018-07-26T02:56:46.461Z,10.33
2018-07-26T02:59:15.470Z,9.67
2018-07-26T03:01:44.529Z,10.23
2018-07-26T03:04:13.510Z,9.60
2018-07-26T03:06:42.494Z,9.63
2018-07-26T03:09:11.525Z,10.00
2018-07-26T03:11:40.521Z,10.20
2018-07-26T03:14:09.506Z,10.30
2018-07-26T03:16:38.499Z,10.70
2018-07-26T03:19:07.522Z,10.47
2018-07-26T03:21:36.541Z,10.40
2018-07-26T03:24:05.558Z,10.23
2018-07-26T03:26:34.551Z,10.23
2018-07-26T03:29:03.584Z,10.50
2018-07-26T03:31:32.539Z,10.30
2018-07-26T03:34:01.446Z,10.03
2018-07-26T03:36:30.445Z,10.90
2018-07-26T03:38:59.497Z,11.13
2018-07-26T03:41:28.573Z,10.90
2018-07-26T03:43:57.533Z,10.60
2018-07-26T03:46:26.545Z,9.70
2018-07-26T03:48:55.557Z,10.40
2018-07-26T03:51:24.656Z,10.50
2018-07-26T03:53:53.664Z,10.97
2018-07-26T03:56:22.621Z,10.40
2018-07-26T03:58:51.968Z,10.33
2018-07-26T04:01:21.139Z,9.67
2018-07-26T04:03:50.114Z,10.57
2018-07-26T04:06:19.133Z,10.97
2018-07-26T04:08:48.105Z,10.17
2018-07-26T04:11:17.281Z,10.33
2018-07-26T04:13:46.413Z,9.80
2018-07-26T04:16:15.429Z,10.10
2018-07-26T04:18:44.441Z,10.20
2018-07-26T04:21:13.505Z,10.27
2018-07-26T04:23:42.761Z,10.20
2018-07-26T04:26:11.608Z,9.60
2018-07-26T04:28:40.509Z,10.83
2018-07-26T04:31:09.611Z,10.53
2018-07-26T04:33:38.889Z,9.83
2018-07-26T04:36:07.921Z,10.87
2018-07-26T04:38:36.877Z,10.53
2018-07-26T04:41:05.889Z,11.57
2018-07-26T04:43:34.885Z,10.90
2018-07-26T04:46:04.341Z,11.17
2018-07-26T04:48:33.590Z,11.17
2018-07-26T04:51:02.746Z,11.20
2018-07-26T04:53:31.739Z,11.37
2018-07-26T04:56:00.809Z,11.47
2018-07-26T04:58:30.369Z,10.60
2018-07-26T05:00:59.451Z,10.83
2018-07-26T05:03:28.537Z,11.50
2018-07-26T05:05:57.593Z,12.30
2018-07-26T05:08:26.725Z,10.83
2018-07-26T05:10:55.863Z,11.23
2018-07-26T05:13:25.005Z,11.60
2018-07-26T05:15:54.045Z,11.13
2018-07-26T05:18:23.056Z,12.27
2018-07-26T05:20:52.209Z,12.30
2018-07-26T05:23:21.401Z,11.67
2018-07-26T05:25:50.397Z,12.10
2018-07-26T05:28:19.419Z,12.30
2018-07-26T05:30:48.583Z,12.80
2018-07-26T05:33:17.575Z,12.17
2018-07-26T05:35:46.621Z,12.97
2018-07-26T05:38:15.702Z,12.27
2018-07-26T05:40:44.705Z,13.23
2018-07-26T05:43:13.768Z,12.93
2018-07-26T05:45:42.853Z,12.40
2018-07-26T05:48:11.877Z,13.40
2018-07-26T05:50:40.849Z,12.50
2018-07-26T05:53:09.867Z,13.60
2018-07-26T05:55:38.845Z,14.73
2018-07-26T05:58:07.821Z,13.53
2018-07-26T06:00:36.877Z,14.50
2018-07-26T06:03:06.143Z,14.33
2018-07-26T06:05:35.151Z,15.07
2018-07-26T06:08:04.142Z,15.53
2018-07-26T06:10:33.182Z,15.60
2018-07-26T06:13:02.193Z,16.03
2018-07-26T06:15:31.184Z,15.13
2018-07-26T06:18:00.145Z,15.43
2018-07-26T06:20:29.207Z,16.73
2018-07-26T06:22:58.364Z,16.53
2018-07-26T06:25:27.342Z,16.30
2018-07-26T06:27:56.413Z,16.30
2018-07-26T06:30:25.424Z,15.37
2018-07-26T06:32:54.493Z,16.13
2018-07-26T06:35:23.463Z,16.50
2018-07-26T06:37:52.446Z,16.90
2018-07-26T06:40:21.464Z,16.40
2018-07-26T06:42:50.472Z,17.47
2018-07-26T06:45:19.468Z,16.70
2018-07-26T06:47:48.197Z,16.50
2018-07-26T06:50:17.128Z,17.03
2018-07-26T06:52:46.148Z,15.30
2018-07-26T06:55:14.932Z,14.97
2018-07-26T06:57:43.544Z,15.60
2018-07-26T07:00:12.446Z,15.77
2018-07-26T07:02:41.525Z,16.10
2018-07-26T07:05:10.905Z,15.43
2018-07-26T07:07:40.106Z,15.27
2018-07-26T07:10:09.100Z,15.00
2018-07-26T07:12:38.132Z,14.40
2018-07-26T07:15:07.131Z,14.77
2018-07-26T07:17:36.108Z,15.13
2018-07-26T07:20:05.916Z,14.13
2018-07-26T07:22:34.935Z,14.63
2018-07-26T07:25:03.986Z,13.80
2018-07-26T07:27:32.934Z,13.80
2018-07-26T07:30:01.951Z,14.10
2018-07-26T07:32:30.971Z,15.27
2018-07-26T07:35:00.012Z,14.83
2018-07-26T07:37:28.972Z,13.90
2018-07-26T07:39:57.934Z,14.47
2018-07-26T07:42:26.940Z,14.00
2018-07-26T07:44:55.935Z,13.50
2018-07-26T07:47:25.111Z,14.67
2018-07-26T07:49:54.100Z,13.37
2018-07-26T07:52:23.114Z,13.00
2018-07-26T07:54:52.146Z,13.27
2018-07-26T07:57:21.108Z,13.70
2018-07-26T07:59:50.102Z,13.27
2018-07-26T08:02:19.101Z,13.23
2018-07-26T08:04:48.115Z,13.23
2018-07-26T08:07:17.115Z,12.23
2018-07-26T08:09:46.083Z,12.13
2018-07-26T08:12:15.061Z,10.90
2018-07-26T08:14:44.062Z,12.30
2018-07-26T08:17:13.127Z,11.97
2018-07-26T08:19:42.121Z,12.40
2018-07-26T08:22:11.148Z,11.10
2018-07-26T08:24:40.167Z,11.43
2018-07-26T08:27:09.211Z,11.00
2018-07-26T08:29:37.929Z,11.63
2018-07-26T08:32:07.349Z,10.97
2018-07-26T08:34:36.339Z,9.90
2018-07-26T08:37:05.604Z,9.87
2018-07-26T08:39:34.892Z,9.63
2018-07-26T08:42:03.888Z,9.90
2018-07-26T08:44:32.988Z,9.67
2018-07-26T08:47:01.961Z,8.83
2018-07-26T08:49:31.001Z,8.70
2018-07-26T08:51:59.720Z,9.20
2018-07-26T08:54:28.652Z,8.70
2018-07-26T08:56:57.654Z,9.17
2018-07-26T08:59:26.646Z,8.40
2018-07-26T09:01:55.633Z,8.50
2018-07-26T09:04:24.759Z,8.43
2018-07-26T09:06:53.724Z,7.80
2018-07-26T09:09:22.662Z,7.83
2018-07-26T09:11:51.651Z,7.40
2018-07-26T09:14:20.676Z,7.77
2018-07-26T09:16:49.646Z,7.90
2018-07-26T09:19:18.660Z,6.90
2018-07-26T09:21:47.681Z,7.43
2018-07-26T09:24:16.696Z,7.07
2018-07-26T09:26:45.693Z,7.50
2018-07-26T09:29:14.784Z,7.60
2018-07-26T09:31:43.782Z,6.40
2018-07-26T09:34:12.825Z,6.70
2018-07-26T09:36:41.818Z,6.93
2018-07-26T09:39:15.912Z,7.40
2018-07-26T09:41:45.098Z,7.20
2018-07-26T09:44:14.134Z,8.10
2018-07-26T09:46:43.124Z,7.67
2018-07-26T09:49:12.110Z,6.73
2018-07-26T09:51:41.164Z,7.50
2018-07-26T09:54:10.166Z,7.63
2018-07-26T09:56:39.145Z,8.10
2018-07-26T09:59:08.172Z,8.00
2018-07-26T10:01:38.363Z,7.10
2018-07-26T10:04:07.321Z,7.33
2018-07-26T10:06:36.361Z,7.10
2018-07-26T10:09:08.734Z,7.03
2018-07-26T10:11:37.799Z,7.50
2018-07-26T10:14:06.792Z,6.93
2018-07-26T10:16:35.788Z,7.30
2018-07-26T10:19:04.806Z,6.87
2018-07-26T10:21:33.830Z,7.20
2018-07-26T10:24:02.831Z,7.53
2018-07-26T10:26:31.856Z,6.93
2018-07-26T10:29:00.829Z,7.00
2018-07-26T10:31:29.867Z,7.03
2018-07-26T10:33:59.468Z,6.80
2018-07-26T10:36:28.562Z,6.73
2018-07-26T10:38:57.670Z,6.90
2018-07-26T10:41:26.734Z,7.00
2018-07-26T10:43:55.762Z,7.10
2018-07-26T10:46:25.155Z,6.90
2018-07-26T10:48:54.196Z,6.60
2018-07-26T10:51:23.181Z,7.07
2018-07-26T10:53:52.128Z,7.00
2018-07-26T10:56:21.774Z,7.40
2018-07-26T10:58:50.785Z,7.53
2018-07-26T11:01:19.773Z,7.33
2018-07-26T11:03:48.812Z,6.90
2018-07-26T11:06:17.811Z,7.40
2018-07-26T11:08:46.873Z,7.03
2018-07-26T11:11:16.030Z,7.10
2018-07-26T11:13:45.050Z,7.57
2018-07-26T11:16:14.116Z,7.20
2018-07-26T11:18:43.122Z,7.10
2018-07-26T11:21:12.158Z,7.33
2018-07-26T11:23:41.179Z,7.17
2018-07-26T11:26:09.894Z,6.90
2018-07-26T11:28:38.781Z,7.37
2018-07-26T11:31:07.801Z,7.00
2018-07-26T11:33:36.813Z,6.80
2018-07-26T11:36:05.858Z,7.20
2018-07-26T11:38:34.798Z,6.80
2018-07-26T11:41:03.855Z,6.80
2018-07-26T11:43:32.896Z,6.80
2018-07-26T11:46:01.894Z,6.77
2018-07-26T11:48:30.969Z,6.70
2018-07-26T11:50:59.957Z,7.63
2018-07-26T11:53:29.088Z,7.30
2018-07-26T11:55:58.077Z,6.53
2018-07-26T11:58:27.078Z,6.60
2018-07-26T12:00:56.079Z,6.63
2018-07-26T12:03:25.295Z,6.73
2018-07-26T12:05:54.293Z,6.40
2018-07-26T12:08:23.251Z,6.07
2018-07-26T12:10:52.250Z,6.10
2018-07-26T12:13:21.355Z,6.10
2018-07-26T12:15:50.368Z,6.20
2018-07-26T12:18:19.397Z,7.37
2018-07-26T12:20:48.555Z,6.37
2018-07-26T12:23:17.589Z,6.23
2018-07-26T12:25:47.466Z,5.70
2018-07-26T12:28:16.706Z,5.83
2018-07-26T12:30:45.722Z,5.80
2018-07-26T12:33:14.515Z,5.30
2018-07-26T12:35:43.485Z,5.30
2018-07-26T12:38:12.474Z,5.33
2018-07-26T12:40:48.146Z,5.80
2018-07-26T12:43:17.377Z,5.53
2018-07-26T12:45:46.350Z,5.50
2018-07-26T12:48:15.086Z,5.00
2018-07-26T12:50:44.017Z,5.07
2018-07-26T12:53:12.755Z,5.13
2018-07-26T12:55:41.627Z,5.17
2018-07-26T12:58:10.728Z,5.13
2018-07-26T13:00:39.767Z,5.27
2018-07-26T13:03:08.860Z,5.47
2018-07-26T13:05:37.831Z,5.43
2018-07-26T13:08:06.846Z,5.27
2018-07-26T13:10:35.819Z,5.60
2018-07-26T13:13:04.853Z,5.30
2018-07-26T13:15:33.778Z,5.33
2018-07-26T13:18:02.701Z,5.67
2018-07-26T13:20:31.721Z,5.37
2018-07-26T13:23:00.702Z,5.23
2018-07-26T13:25:29.956Z,5.70
2018-07-26T13:27:59.028Z,5.87
2018-07-26T13:30:28.066Z,5.57
2018-07-26T13:32:57.058Z,5.37
2018-07-26T13:35:26.330Z,4.93
2018-07-26T13:37:55.412Z,5.50
2018-07-26T13:40:24.392Z,5.47
2018-07-26T13:42:53.391Z,5.20
2018-07-26T13:45:22.430Z,5.40
2018-07-26T13:47:51.433Z,6.13
2018-07-26T13:50:21.161Z,5.77
2018-07-26T13:52:50.333Z,5.70
2018-07-26T13:55:19.354Z,5.80
2018-07-26T13:57:48.400Z,5.50
2018-07-26T14:00:17.413Z,5.53
2018-07-26T14:02:46.411Z,6.07
2018-07-26T14:05:15.428Z,5.87
2018-07-26T14:07:44.440Z,6.00
2018-07-26T14:10:13.434Z,5.67
2018-07-26T14:12:42.514Z,5.70
2018-07-26T14:15:11.772Z,5.10
2018-07-26T14:17:40.787Z,6.27
2018-07-26T14:20:11.327Z,5.83
2018-07-26T14:22:40.789Z,5.70
2018-07-26T14:25:09.785Z,5.60
2018-07-26T14:27:38.855Z,6.20
2018-07-26T14:30:08.375Z,5.97
2018-07-26T14:32:37.350Z,5.90
2018-07-26T14:35:06.177Z,6.10
2018-07-26T14:37:35.164Z,5.53
2018-07-26T14:40:04.949Z,5.53
2018-07-26T14:42:33.985Z,5.70
2018-07-26T14:45:02.990Z,5.80
2018-07-26T14:47:32.017Z,5.57
2018-07-26T14:50:00.759Z,5.60
2018-07-26T14:52:29.675Z,5.73
2018-07-26T14:54:58.687Z,5.27
2018-07-26T14:57:27.740Z,5.57
2018-07-26T14:59:56.823Z,5.40
2018-07-26T15:02:25.921Z,5.23
2018-07-26T15:04:54.969Z,5.40
2018-07-26T15:07:23.989Z,5.50
2018-07-26T15:09:53.023Z,5.20
2018-07-26T15:12:21.997Z,5.60
2018-07-26T15:14:51.543Z,5.53
2018-07-26T15:17:20.757Z,6.13
2018-07-26T15:19:49.873Z,6.33
2018-07-26T15:22:18.889Z,5.80
2018-07-26T15:24:47.848Z,6.27
2018-07-26T15:27:16.552Z,6.40
2018-07-26T15:29:45.495Z,5.67
2018-07-26T15:32:14.742Z,5.23
2018-07-26T15:34:43.719Z,5.70
2018-07-26T15:37:12.445Z,5.73
2018-07-26T15:39:41.372Z,5.67
2018-07-26T15:42:10.413Z,5.67
2018-07-26T15:44:39.481Z,5.87
2018-07-26T15:47:08.475Z,5.53
2018-07-26T15:49:37.543Z,5.20
2018-07-26T15:52:06.528Z,4.90
2018-07-26T15:54:35.531Z,5.13
2018-07-26T15:57:04.703Z,5.13
2018-07-26T15:59:33.914Z,5.30
2018-07-26T16:02:02.988Z,5.47
2018-07-26T16:04:31.941Z,5.20
2018-07-26T16:07:00.947Z,5.30
2018-07-26T16:09:30.021Z,5.50
2018-07-26T16:11:59.059Z,5.87
2018-07-26T16:14:28.098Z,6.03
2018-07-26T16:16:57.109Z,6.20
2018-07-26T16:19:26.112Z,6.20
2018-07-26T16:21:55.183Z,6.40
2018-07-26T16:24:24.858Z,5.60
2018-07-26T16:26:53.945Z,5.80
2018-07-26T16:29:23.040Z,5.80
2018-07-26T16:31:52.099Z,6.10
2018-07-26T16:34:21.026Z,6.63
2018-07-26T16:36:50.258Z,6.60
2018-07-26T16:39:19.340Z,5.93
2018-07-26T16:41:48.298Z,5.77
2018-07-26T16:44:17.366Z,5.90
2018-07-26T16:46:46.368Z,5.60
2018-07-26T16:49:15.492Z,5.83
2018-07-26T16:51:44.468Z,5.77
2018-07-26T16:54:13.516Z,5.50
2018-07-26T16:56:42.536Z,6.27
2018-07-26T16:59:11.676Z,5.90
2018-07-26T17:01:40.688Z,5.70
2018-07-26T17:04:09.766Z,5.70
2018-07-26T17:06:38.862Z,5.77
2018-07-26T17:09:09.925Z,5.40
2018-07-26T17:11:38.936Z,6.10
2018-07-26T17:14:07.912Z,5.90
2018-07-26T17:16:36.984Z,6.27
2018-07-26T17:19:06.133Z,5.60
2018-07-26T17:21:35.132Z,5.90
2018-07-26T17:24:04.156Z,5.67
2018-07-26T17:26:33.140Z,5.80
2018-07-26T17:29:02.028Z,5.80
2018-07-26T17:31:31.071Z,5.83
2018-07-26T17:34:00.096Z,6.20
2018-07-26T17:36:29.111Z,6.23
2018-07-26T17:38:58.194Z,5.50
2018-07-26T17:41:27.237Z,5.77
2018-07-26T17:44:02.997Z,5.93
2018-07-26T17:46:32.042Z,6.30
2018-07-26T17:49:01.021Z,6.73
2018-07-26T17:51:30.345Z,6.80
2018-07-26T17:53:59.360Z,6.20
2018-07-26T17:56:28.971Z,6.27
2018-07-26T17:58:58.057Z,6.13
2018-07-26T18:01:27.041Z,6.73
2018-07-26T18:03:56.022Z,6.30
2018-07-26T18:06:25.349Z,6.30
2018-07-26T18:08:54.409Z,6.70
2018-07-26T18:11:23.511Z,6.60
2018-07-26T18:13:52.406Z,6.70
2018-07-26T18:16:21.308Z,6.07
2018-07-26T18:18:50.417Z,6.43
2018-07-26T18:21:19.741Z,5.63
2018-07-26T18:23:48.828Z,5.70
2018-07-26T18:26:17.825Z,5.80
2018-07-26T18:28:46.757Z,5.43
2018-07-26T18:31:15.860Z,5.50
2018-07-26T18:33:44.971Z,5.90
2018-07-26T18:36:14.107Z,6.17
2018-07-26T18:38:43.221Z,6.03
2018-07-26T18:41:12.229Z,6.13
2018-07-26T18:43:41.284Z,6.53
2018-07-26T18:46:10.263Z,5.73
2018-07-26T18:48:39.410Z,6.30
2018-07-26T18:51:08.381Z,6.23
2018-07-26T18:53:37.349Z,6.00
2018-07-26T18:56:06.423Z,6.67
2018-07-26T18:58:35.392Z,6.40
2018-07-26T19:01:04.436Z,6.40
2018-07-26T19:03:33.528Z,6.33
2018-07-26T19:06:02.567Z,6.30
2018-07-26T19:08:31.612Z,6.40
2018-07-26T19:11:00.654Z,5.80
2018-07-26T19:13:29.618Z,5.83
2018-07-26T19:15:58.578Z,6.17
2018-07-26T19:18:27.620Z,5.97
2018-07-26T19:20:56.666Z,6.43
2018-07-26T19:23:25.760Z,6.40
2018-07-26T19:25:54.830Z,6.73
2018-07-26T19:28:24.085Z,6.40
2018-07-26T19:30:53.112Z,6.83
2018-07-26T19:33:22.120Z,7.03
2018-07-26T19:35:51.121Z,6.93
2018-07-26T19:38:20.244Z,6.53
2018-07-26T19:40:49.282Z,6.20
2018-07-26T19:43:18.248Z,6.50
2018-07-26T19:45:47.274Z,6.60
2018-07-26T19:48:16.301Z,6.50
2018-07-26T19:50:45.122Z,7.00
2018-07-26T19:53:14.032Z,7.00
2018-07-26T19:55:43.078Z,7.23
2018-07-26T19:58:12.202Z,6.90
2018-07-26T20:00:41.150Z,8.17
2018-07-26T20:03:10.170Z,11.37
2018-07-26T20:05:39.258Z,10.20
2018-07-26T20:08:08.156Z,9.80
2018-07-26T20:10:37.146Z,7.70
2018-07-26T20:13:06.264Z,7.40
2018-07-26T20:15:35.246Z,7.97
2018-07-26T20:18:04.408Z,6.87
2018-07-26T20:20:33.404Z,7.23
2018-07-26T20:23:02.428Z,6.90
2018-07-26T20:25:31.390Z,7.20
2018-07-26T20:28:00.413Z,7.43
2018-07-26T20:30:29.443Z,7.23
2018-07-26T20:32:58.501Z,7.60
2018-07-26T20:35:27.433Z,7.63
2018-07-26T20:37:56.400Z,7.53
2018-07-26T20:40:25.373Z,7.90
2018-07-26T20:42:54.389Z,7.53
2018-07-26T20:45:23.398Z,7.60
2018-07-26T20:47:52.428Z,7.27
2018-07-26T20:50:21.427Z,7.67
2018-07-26T20:52:50.435Z,8.17
2018-07-26T20:55:19.434Z,8.67
2018-07-26T20:57:48.417Z,8.00
2018-07-26T21:00:17.474Z,7.93
2018-07-26T21:02:47.460Z,8.50
2018-07-26T21:05:16.429Z,7.30
2018-07-26T21:07:45.393Z,7.50
2018-07-26T21:10:14.446Z,7.87
2018-07-26T21:12:43.453Z,7.97
2018-07-26T21:15:12.429Z,8.00
2018-07-26T21:17:41.442Z,7.83
2018-07-26T21:20:10.517Z,7.90
2018-07-26T21:22:39.549Z,7.90
2018-07-26T21:25:08.581Z,8.50
2018-07-26T21:27:37.570Z,8.40
2018-07-26T21:30:07.272Z,7.97
2018-07-26T21:32:36.501Z,8.07
2018-07-26T21:35:06.649Z,8.30
2018-07-26T21:37:35.726Z,8.40
2018-07-26T21:40:05.973Z,9.20
2018-07-26T21:42:35.169Z,8.40
2018-07-26T21:45:04.583Z,8.23
2018-07-26T21:47:33.573Z,8.87
2018-07-26T21:50:02.733Z,8.60
2018-07-26T21:52:31.953Z,8.43
2018-07-26T21:55:00.949Z,8.30
2018-07-26T21:57:29.939Z,7.73
2018-07-26T21:59:58.979Z,8.07
2018-07-26T22:02:28.077Z,8.97
2018-07-26T22:04:57.093Z,8.40
2018-07-26T22:07:26.104Z,7.63
2018-07-26T22:09:55.113Z,7.67
2018-07-26T22:12:24.185Z,7.70
2018-07-26T22:14:53.181Z,8.00
2018-07-26T22:17:22.221Z,8.47
2018-07-26T22:19:51.217Z,8.00
2018-07-26T22:22:20.193Z,8.17
2018-07-26T22:24:49.201Z,8.30
2018-07-26T22:27:18.201Z,8.00
2018-07-26T22:29:47.181Z,8.10
2018-07-26T22:32:16.197Z,8.30
2018-07-26T22:34:45.191Z,8.50
2018-07-26T22:37:14.169Z,8.70
2018-07-26T22:39:43.121Z,8.20
2018-07-26T22:42:12.149Z,8.00
2018-07-26T22:44:41.162Z,8.33
2018-07-26T22:47:10.169Z,8.20
2018-07-26T22:49:38.858Z,8.70
2018-07-26T22:52:07.765Z,9.07
2018-07-26T22:54:36.773Z,9.17
2018-07-26T22:57:05.810Z,9.30
2018-07-26T22:59:34.807Z,9.00
2018-07-26T23:02:03.820Z,8.93
2018-07-26T23:04:32.844Z,9.20
2018-07-26T23:07:01.841Z,9.10
2018-07-26T23:09:30.794Z,9.17
2018-07-26T23:11:59.934Z,9.20
2018-07-26T23:14:29.022Z,9.67
2018-07-26T23:16:57.992Z,9.70
2018-07-26T23:19:26.950Z,8.83
2018-07-26T23:21:56.054Z,9.23
2018-07-26T23:24:25.052Z,9.27
2018-07-26T23:26:54.049Z,9.20
2018-07-26T23:29:23.024Z,9.67
2018-07-26T23:31:52.018Z,9.80
2018-07-26T23:34:21.022Z,10.30
2018-07-26T23:36:50.064Z,9.90
2018-07-26T23:39:19.014Z,9.77
2018-07-26T23:41:47.991Z,9.40
2018-07-26T23:44:17.010Z,9.47
2018-07-26T23:46:45.953Z,9.33
2018-07-26T23:49:14.917Z,8.83
2018-07-26T23:51:43.927Z,9.77
2018-07-26T23:54:13.017Z,9.93
2018-07-26T23:56:42.089Z,10.10
2018-07-26T23:59:11.083Z,9.43
